Tiempo atmosférico en la estación meteorológica de Rojales, Alacant/Alicante (31 m.)



Fecha
DESCASC
Temp. máxima en grados centígrados (hora)
DESCASC
Temp. mínima en grados centígrados (hora)
DESCASC
Temp. media en grados centígrados
DESCASC
Racha de viento máxima en m/sg (hora)
DESCASC
Velocidad máxima media en intervalos de 10 minutos(hora)
DESCASC
Precipitaciones diarias en mm
DESCASC
Precipitaciones de 00:00 a 06:00 en mm
DESCASC
Precipitaciones de 06:00 a 12:00 en mm
DESCASC
Precipitaciones de 12:00 a 18:00 en mm
DESCASC
Precipitaciones de 18:00 a 24:00 en mm
DESCASC
16-04-2019 23.9 (12:30) 12.7 (07:30) 18.3 10.83 (14:20) 6.67 (14:00) 0 0 0 0 0
15-04-2019 21.7 (14:10) 14.4 (23:30) 18.1 7.5 (10:50) 4.72 (12:30) 0 0 0 0 0
14-04-2019 28.4 (14:40) 11.1 (00:00) 19.8 10.56 (16:50) 6.39 (16:50) 0 0 0 0 0
13-04-2019 23 (12:40) 9.1 (00:00) 16.1 7.78 (15:20) 5 (20:00) 0 0 0 0 0
12-04-2019 21.5 (14:30) 11.4 (00:00) 16.4 12.22 (11:00) 7.78 (10:50) 0 0 0 0 0
11-04-2019 22 (15:00) 10.4 (00:00) 16.2 10.28 (10:40) 6.94 (11:40) 0 0 0 0 0
10-04-2019 20.2 (15:20) 11.8 (00:00) 16 16.39 (18:40) 10.28 (18:40) 0 0 0 0 0
09-04-2019 21.5 (14:40) 13 (00:00) 17.3 13.89 (19:50) 8.61 (20:00) 0 0 0 0 0
08-04-2019 23.3 (17:30) 13.6 (00:00) 18.4 12.22 (19:00) 7.22 (19:00) 0 0 0 0 0
07-04-2019 21.4 (18:20) 10 (08:50) 15.7 17.22 (13:50) 10.56 (13:30) 0 0 0 0 0
06-04-2019 18.8 (13:50) 7.2 (06:50) 13 13.89 (15:10) 5.83 (15:20) 1.2 0 0 1 0.2
05-04-2019 19.9 (15:30) 10.5 (07:40) 15.2 15 (16:40) 8.06 (16:40) 1.2 0 0 0 1.2

Gráficas

Temp. máximas Temp. mínimas Temp. medias Precipitaciones Rachas de viento máximas Velocidades máximas media en intervalos de 10 minutos

Datos horarios

Fecha y hora oficial Temperatura (ºC) Velocidad del viento (km/h) Dirección del viento Racha (km/h) Dirección de racha Precipitación (mm) Presión (hPa) Tendencia (hPa) Humedad (%)
2019-04-17 23:00:00 15.7 19 Nordeste 36 Este 0 -- -- 82
2019-04-17 22:00:00 15.6 18 Nordeste 41 Este 0 -- -- 82
2019-04-17 21:00:00 15.5 24 Nordeste 42 Nordeste 0 -- -- 83
2019-04-17 20:00:00 16 22 Nordeste 45 Nordeste 0 -- -- 81
2019-04-17 19:00:00 16.4 23 Nordeste 39 Este 0 -- -- 78
2019-04-17 18:00:00 17.4 23 Nordeste 39 Nordeste 0 -- -- 73
2019-04-17 17:00:00 17.6 22 Este 38 Este 0 -- -- 73
2019-04-17 16:00:00 18.1 23 Este 41 Este 0 -- -- 69
2019-04-17 15:00:00 18.5 23 Nordeste 39 Nordeste 0 -- -- 67
2019-04-17 14:00:00 18.9 22 Este 37 Este 0 -- -- 62
2019-04-17 13:00:00 18.8 19 Nordeste 35 Este 0 -- -- 62
2019-04-17 12:00:00 18.6 18 Nordeste 30 Nordeste 0 -- -- 63
2019-04-17 11:00:00 18.3 18 Este 31 Este 0 -- -- 62
2019-04-17 10:00:00 17.4 11 Nordeste 22 Nordeste 0 -- -- 71
2019-04-17 09:00:00 15.2 0 Calma 5 Norte 0 -- -- 82
2019-04-17 08:00:00 14.4 0 Calma 13 Nordeste 0 -- -- 82
2019-04-17 07:00:00 15 8 Nordeste 23 Nordeste 0 -- -- 80
2019-04-17 06:00:00 15.2 11 Este 22 Este 0 -- -- 80
2019-04-17 05:00:00 15.1 5 Este 19 Este 0 -- -- 81
2019-04-17 04:00:00 15.2 10 Nordeste 17 Nordeste 0 -- -- 84
2019-04-17 03:00:00 14.8 9 Nordeste 22 Nordeste 0 -- -- 86
2019-04-17 02:00:00 15.4 14 Nordeste 26 Nordeste 0 -- -- 86
2019-04-17 01:00:00 15.5 10 Este 20 Nordeste 0 -- -- 88
2019-04-17 00:00:00 14.8 5 Nordeste 11 Este 0 -- -- 89
2019-04-16 23:00:00 15 4 Este 12 Nordeste 0 -- -- 88
2019-04-16 22:00:00 15.7 8 Nordeste 17 Este 0 -- -- 88
2019-04-16 21:00:00 15.9 11 Este 21 Este 0 -- -- 86
2019-04-16 20:00:00 16.8 12 Nordeste 23 Nordeste 0 -- -- 82
2019-04-16 19:00:00 18.1 14 Este 31 Este 0 -- -- 75
2019-04-16 18:00:00 19.2 17 Este 27 Este 0 -- -- 64
2019-04-16 17:00:00 19.5 17 Este 32 Este 0 -- -- 60
2019-04-16 16:00:00 18.8 16 Este 31 Este 0 -- -- 69
2019-04-16 15:00:00 18.7 19 Este 39 Este 0 -- -- 72
2019-04-16 14:00:00 19.5 24 Este 36 Este 0 -- -- 69
2019-04-16 13:00:00 21.3 18 Este 36 Este 0 -- -- 56
2019-04-16 12:00:00 22.6 15 Noroeste 28 Noroeste 0 -- -- 40
2019-04-16 11:00:00 20.7 17 Oeste 24 Noroeste 0 -- -- 42
2019-04-16 10:00:00 17.9 12 Oeste 21 Oeste 0 -- -- 65
2019-04-16 09:00:00 15 3 Este 12 Oeste 0 -- -- 88
2019-04-16 08:00:00 13.1 8 Sudoeste 14 Sudoeste 0 -- -- 93
2019-04-16 07:00:00 13.4 2 Noroeste 13 Sudoeste 0 -- -- 90
2019-04-16 06:00:00 13.8 6 Sudoeste 13 Sudoeste 0 -- -- 94
2019-04-16 05:00:00 13.4 3 Oeste 12 Sudoeste 0 -- -- 94
2019-04-16 04:00:00 13.6 6 Oeste 10 Oeste 0 -- -- 94
2019-04-16 03:00:00 13.9 5 Sudoeste 8 Oeste 0 -- -- 94
2019-04-16 02:00:00 13.8 0 Calma 4 Oeste 0 -- -- 93
2019-04-16 01:00:00 14.1 2 Oeste 4 Oeste 0 -- -- 93
2019-04-16 00:00:00 14.4 0 Calma 5 Norte 0 -- -- 91
2019-04-15 23:00:00 14.7 3 Noroeste 9 Nordeste 0 -- -- 89
2019-04-15 22:00:00 15.7 7 Este 14 Nordeste 0 -- -- 88
2019-04-15 21:00:00 16.1 10 Este 23 Este 0 -- -- 87
2019-04-15 20:00:00 17.1 11 Este 24 Este 0 -- -- 82
2019-04-15 19:00:00 18.7 14 Este 23 Este 0 -- -- 73
2019-04-15 18:00:00 19.1 10 Sudeste 20 Este 0 -- -- 72
2019-04-15 17:00:00 19.6 11 Este 23 Este 0 -- -- 66
2019-04-15 16:00:00 21.3 15 Este 27 Sudeste 0 -- -- 59
2019-04-15 15:00:00 21.2 15 Este 27 Este 0 -- -- 58
2019-04-15 14:00:00 21.6 12 Este 26 Este 0 -- -- 53
2019-04-15 13:00:00 20.3 15 Este 27 Este 0 -- -- 64
2019-04-15 12:00:00 19.6 14 Este 26 Este 0 -- -- 71
2019-04-15 11:00:00 17.7 16 Este 27 Este 0 -- -- 81
2019-04-15 10:00:00 18.1 16 Nordeste 26 Nordeste 0 -- -- 78
2019-04-15 09:00:00 16.9 5 Nordeste 10 Nordeste 0 -- -- 66
2019-04-15 08:00:00 15.3 0 Calma 6 Este 0 -- -- 64
2019-04-15 07:00:00 14.6 2 Este 4 Este 0 -- -- 62
2019-04-15 06:00:00 15.2 0 Calma 8 Sur 0 -- -- 60
2019-04-15 05:00:00 16.2 4 Nordeste 6 Nordeste 0 -- -- 56
2019-04-15 04:00:00 17.6 6 Sudoeste 15 Sudoeste 0 -- -- 51
2019-04-15 03:00:00 17 8 Oeste 15 Sudoeste 0 -- -- 50
2019-04-15 02:00:00 16.6 4 Sudoeste 6 Oeste 0 -- -- 49
2019-04-15 01:00:00 19.1 3 Sur 8 Sudoeste 0 -- -- 38
2019-04-15 00:00:00 19.9 6 Sudeste 9 Sudeste 0 -- -- 35
2019-04-14 23:00:00 20.4 6 Sudoeste 13 Sudoeste 0 -- -- 34
2019-04-14 22:00:00 21.4 8 Sudoeste 31 Sur 0 -- -- 35
2019-04-14 21:00:00 22.5 15 Sur 30 Sur 0 -- -- 33
2019-04-14 20:00:00 24.6 17 Sur 35 Sur 0 -- -- 29
2019-04-14 19:00:00 26 22 Sur 37 Sudoeste 0 -- -- 27
2019-04-14 18:00:00 27 19 Sur 37 Sur 0 -- -- 28
2019-04-14 17:00:00 27.9 21 Sur 38 Sur 0 -- -- 25
2019-04-14 16:00:00 27.8 15 Sur 36 Sur 0 -- -- 30
2019-04-14 15:00:00 28 17 Sur 32 Sudeste 0 -- -- 29
2019-04-14 14:00:00 27.8 13 Sudoeste 28 Oeste 0 -- -- 23
2019-04-14 13:00:00 26.4 14 Oeste 27 Noroeste 0 -- -- 30
2019-04-14 12:00:00 24.4 14 Oeste 25 Oeste 0 -- -- 33
2019-04-14 11:00:00 22.5 13 Oeste 27 Oeste 0 -- -- 38
2019-04-14 10:00:00 18.9 12 Oeste 20 Oeste 0 -- -- 49
2019-04-14 09:00:00 16.1 8 Oeste 20 Sudoeste 0 -- -- 54
2019-04-14 08:00:00 15 9 Sudoeste 18 Oeste 0 -- -- 56
2019-04-14 07:00:00 12.5 8 Sudoeste 13 Sudoeste 0 -- -- 67
2019-04-14 06:00:00 13.4 6 Oeste 16 Sudoeste 0 -- -- 68
2019-04-14 05:00:00 11.5 6 Oeste 12 Oeste 0 -- -- 84
2019-04-14 04:00:00 12.3 3 Oeste 13 Oeste 0 -- -- 80
2019-04-14 03:00:00 13 6 Oeste 11 Sudoeste 0 -- -- 86
2019-04-14 02:00:00 12.7 5 Sudoeste 10 Oeste 0 -- -- 93
2019-04-14 01:00:00 12.7 5 Sudoeste 6 Sudoeste 0 -- -- 92
2019-04-14 00:00:00 12.9 2 Oeste 4 Oeste 0 -- -- 91
2019-04-13 23:00:00 13.5 2 Noroeste 3 Oeste 0 -- -- 87
2019-04-13 22:00:00 15 4 Nordeste 14 Este 0 -- -- 81
2019-04-13 21:00:00 15.8 14 Nordeste 26 Este 0 -- -- 83
2019-04-13 20:00:00 17.4 18 Nordeste 26 Nordeste 0 -- -- 68
2019-04-13 19:00:00 19.7 13 Este 23 Nordeste 0 -- -- 56
2019-04-13 18:00:00 21.4 10 Este 23 Sudeste 0 -- -- 46
2019-04-13 17:00:00 20.9 11 Sudeste 26 Sudeste 0 -- -- 45
2019-04-13 16:00:00 20.8 16 Sudeste 28 Sudeste 0 -- -- 47
2019-04-13 15:00:00 20.5 16 Sudeste 28 Este 0 -- -- 45
2019-04-13 14:00:00 20.8 15 Este 25 Este 0 -- -- 44
2019-04-13 13:00:00 22.7 12 Este 24 Noroeste 0 -- -- 38
2019-04-13 12:00:00 21.7 5 Noroeste 18 Oeste 0 -- -- 32
2019-04-13 11:00:00 19.4 12 Oeste 19 Oeste 0 -- -- 37
2019-04-13 10:00:00 16.2 9 Oeste 17 Oeste 0 -- -- 48
2019-04-13 09:00:00 11.5 4 Oeste 9 Noroeste 0 -- -- 70
2019-04-13 08:00:00 9.7 6 Oeste 9 Oeste 0 -- -- 77
2019-04-13 07:00:00 10.1 6 Oeste 12 Oeste 0 -- -- 79
2019-04-13 06:00:00 9.1 4 Oeste 6 Oeste 0 -- -- 90
2019-04-13 05:00:00 9.9 0 Calma 4 Oeste 0 -- -- 87
2019-04-13 04:00:00 11.5 4 Oeste 13 Oeste 0 -- -- 83
2019-04-13 03:00:00 11.9 7 Oeste 14 Oeste 0 -- -- 81
2019-04-13 02:00:00 12.2 6 Oeste 10 Oeste 0 -- -- 74
2019-04-13 01:00:00 11.9 6 Sudoeste 9 Oeste 0 -- -- 80
2019-04-13 00:00:00 11.7 3 Noroeste 5 Noroeste 0 -- -- 84
2019-04-12 23:00:00 13.2 0 Calma 7 Este 0 -- -- 85
2019-04-12 22:00:00 14.7 4 Nordeste 13 Este 0 -- -- 81
2019-04-12 21:00:00 15.7 8 Este 17 Nordeste 0 -- -- 77
2019-04-12 20:00:00 17.6 9 Sudeste 28 Sudeste 0 -- -- 63
2019-04-12 19:00:00 18.5 16 Sudeste 29 Sudeste 0 -- -- 60
2019-04-12 18:00:00 19.5 14 Sudeste 31 Este 0 -- -- 41
2019-04-12 17:00:00 20.3 15 Nordeste 26 Este 0 -- -- 35
2019-04-12 16:00:00 20.2 17 Este 27 Nordeste 0 -- -- 35
2019-04-12 15:00:00 20.8 15 Nordeste 26 Nordeste 0 -- -- 32
2019-04-12 14:00:00 20.5 13 Oeste 32 Oeste 0 -- -- 30
2019-04-12 13:00:00 18.8 22 Oeste 35 Noroeste 0 -- -- 33
2019-04-12 12:00:00 17.6 23 Oeste 41 Oeste 0 -- -- 34
2019-04-12 11:00:00 16.7 27 Noroeste 44 Oeste 0 -- -- 38
2019-04-12 10:00:00 15.7 20 Oeste 32 Oeste 0 -- -- 44
2019-04-12 09:00:00 13.2 7 Oeste 18 Oeste 0 -- -- 53
2019-04-12 08:00:00 11.5 9 Oeste 19 Oeste 0 -- -- 56
2019-04-12 07:00:00 11.9 11 Oeste 21 Oeste 0 -- -- 54
2019-04-12 06:00:00 12.2 11 Oeste 23 Oeste 0 -- -- 52
2019-04-12 05:00:00 12.7 5 Oeste 16 Sudoeste 0 -- -- 50
2019-04-12 04:00:00 12.6 9 Oeste 13 Sudoeste 0 -- -- 51
2019-04-12 03:00:00 11.7 4 Oeste 12 Oeste 0 -- -- 64
2019-04-12 02:00:00 13.4 7 Oeste 15 Oeste 0 -- -- 57
2019-04-12 01:00:00 13.2 8 Sudoeste 12 Oeste 0 -- -- 75
2019-04-12 00:00:00 12.9 0 Calma 6 Norte 0 -- -- 78
2019-04-11 23:00:00 13.3 4 Sudeste 12 Oeste 0 -- -- 73
2019-04-11 22:00:00 14.4 0 Calma 26 Norte 0 -- -- 68
2019-04-11 21:00:00 16 14 Norte 25 Norte 0 -- -- 65
2019-04-11 20:00:00 19.5 5 Sudeste 20 Sudeste 0 -- -- 48
2019-04-11 19:00:00 19.8 12 Sur 34 Sur 0 -- -- 47
2019-04-11 18:00:00 19.4 17 Sur 33 Sur 0 -- -- 45
2019-04-11 17:00:00 18.2 19 Sudeste 32 Sudeste 0 -- -- 49
2019-04-11 16:00:00 19.6 13 Sudeste 30 Este 0 -- -- 44
2019-04-11 15:00:00 22 6 Noroeste 21 Noroeste 0 -- -- 28
2019-04-11 14:00:00 20.8 8 Noroeste 28 Sudoeste 0 -- -- 31
2019-04-11 13:00:00 19.2 16 Oeste 30 Oeste 0 -- -- 37
2019-04-11 12:00:00 17.4 21 Oeste 34 Oeste 0 -- -- 40
2019-04-11 11:00:00 16.2 21 Noroeste 37 Noroeste 0 -- -- 45
2019-04-11 10:00:00 14.6 23 Oeste 33 Oeste 0 -- -- 51
2019-04-11 09:00:00 12.8 12 Oeste 21 Oeste 0 -- -- 59
2019-04-11 08:00:00 11.6 10 Oeste 21 Oeste 0 -- -- 59
2019-04-11 07:00:00 10.4 8 Oeste 23 Oeste 0 -- -- 68
2019-04-11 06:00:00 11.4 8 Oeste 21 Oeste 0 -- -- 64
2019-04-11 05:00:00 11.6 12 Oeste 22 Oeste 0 -- -- 63
2019-04-11 04:00:00 11.8 11 Oeste 23 Oeste 0 -- -- 63
2019-04-11 03:00:00 12.1 10 Oeste 25 Oeste 0 -- -- 63
2019-04-11 02:00:00 12.9 12 Oeste 28 Oeste 0 -- -- 60
2019-04-11 01:00:00 12.3 11 Oeste 25 Oeste 0 -- -- 63
2019-04-11 00:00:00 12.8 13 Oeste 27 Oeste 0 -- -- 62
2019-04-10 23:00:00 13.4 13 Oeste 31 Oeste 0 -- -- 62
2019-04-10 22:00:00 14 19 Oeste 35 Oeste 0 -- -- 59
2019-04-10 21:00:00 14.3 16 Oeste 28 Oeste 0 -- -- 56
2019-04-10 20:00:00 15.1 15 Oeste 39 Oeste 0 -- -- 51
2019-04-10 19:00:00 15 14 Oeste 59 Noroeste 0 -- -- 54
2019-04-10 18:00:00 16.3 35 Noroeste 57 Noroeste 0 -- -- 46
2019-04-10 17:00:00 19.6 30 Noroeste 51 Noroeste 0 -- -- 35
2019-04-10 16:00:00 19.1 29 Oeste 48 Oeste 0 -- -- 37
2019-04-10 15:00:00 19.7 31 Oeste 48 Oeste 0 -- -- 33
2019-04-10 14:00:00 19.3 24 Oeste 38 Oeste 0 -- -- 37
2019-04-10 13:00:00 18.2 24 Oeste 41 Oeste 0 -- -- 40
2019-04-10 12:00:00 17.8 21 Noroeste 37 Oeste 0 -- -- 43
2019-04-10 11:00:00 16.5 22 Oeste 37 Oeste 0 -- -- 46
2019-04-10 10:00:00 15.6 19 Oeste 27 Oeste 0 -- -- 51
2019-04-10 09:00:00 13.5 9 Oeste 13 Oeste 0 -- -- 59
2019-04-10 08:00:00 11.8 5 Oeste 20 Sudoeste 0 -- -- 63
2019-04-10 07:00:00 12.3 10 Sudoeste 19 Sudoeste 0 -- -- 61
2019-04-10 06:00:00 12.6 8 Sudoeste 17 Sudoeste 0 -- -- 59
2019-04-10 05:00:00 12.7 8 Sudoeste 19 Oeste 0 -- -- 59
2019-04-10 04:00:00 13.2 9 Sudoeste 15 Sudoeste 0 -- -- 56
2019-04-10 03:00:00 13.1 6 Sudoeste 15 Sudoeste 0 -- -- 57
2019-04-10 02:00:00 14 9 Sudoeste 20 Sudoeste 0 -- -- 54
2019-04-10 01:00:00 14.6 10 Oeste 20 Sudoeste 0 -- -- 53
2019-04-10 00:00:00 15.3 12 Oeste 30 Oeste 0 -- -- 51
2019-04-09 23:00:00 15.6 19 Oeste 30 Noroeste 0 -- -- 50
2019-04-09 22:00:00 15.7 9 Oeste 19 Noroeste 0 -- -- 48
2019-04-09 21:00:00 16.6 17 Noroeste 47 Noroeste 0 -- -- 44
2019-04-09 20:00:00 18.4 31 Oeste 50 Oeste 0 -- -- 38
2019-04-09 19:00:00 18.7 21 Noroeste 49 Oeste 0 -- -- 42
2019-04-09 18:00:00 20.3 8 Sudoeste 24 Sudeste 0 -- -- 44
2019-04-09 17:00:00 19.4 15 Sudeste 30 Sudeste 0 -- -- 50
2019-04-09 16:00:00 20.3 10 Sur 25 Sudeste 0 -- -- 37
2019-04-09 15:00:00 20.7 13 Noroeste 33 Oeste 0 -- -- 33
2019-04-09 14:00:00 19.5 22 Oeste 37 Oeste 0 -- -- 34
2019-04-09 13:00:00 19 21 Oeste 47 Oeste 0 -- -- 37
2019-04-09 12:00:00 18.4 22 Noroeste 37 Noroeste 0 -- -- 39
2019-04-09 11:00:00 17 26 Noroeste 39 Oeste 0 -- -- 43
2019-04-09 10:00:00 15.9 27 Noroeste 40 Oeste 0 -- -- 47
2019-04-09 09:00:00 14.5 18 Oeste 27 Oeste 0 -- -- 55
2019-04-09 08:00:00 13.2 10 Oeste 19 Oeste 0 -- -- 60
2019-04-09 07:00:00 14.2 13 Oeste 28 Oeste 0 -- -- 55
2019-04-09 06:00:00 13.9 17 Noroeste 28 Noroeste 0 -- -- 59
2019-04-09 05:00:00 14.3 8 Oeste 26 Oeste 0 -- -- 58
2019-04-09 04:00:00 15.1 13 Oeste 27 Oeste 0 -- -- 56
2019-04-09 03:00:00 15.2 17 Oeste 41 Oeste 0 -- -- 59